createdAt,value
2023-01-28T00:00:26.417Z,7.1
2023-01-28T00:01:42.706Z,4.5
2023-01-28T00:02:58.999Z,5.7
2023-01-28T00:04:14.313Z,3.2
2023-01-28T00:05:30.602Z,4.4
2023-01-28T00:06:46.913Z,6.6
2023-01-28T00:08:03.191Z,3.2
2023-01-28T00:09:19.493Z,5.7
2023-01-28T00:10:35.794Z,5.7
2023-01-28T00:11:52.072Z,5.2
2023-01-28T00:13:08.361Z,15.3
2023-01-28T00:14:24.667Z,4.7
2023-01-28T00:15:40.958Z,2.8
2023-01-28T00:16:57.242Z,3.5
2023-01-28T00:18:13.551Z,5.4
2023-01-28T00:19:29.841Z,3.8
2023-01-28T00:20:45.158Z,5.4
2023-01-28T00:22:01.438Z,6.5
2023-01-28T00:23:17.740Z,3.6
2023-01-28T00:24:34.034Z,4.6
2023-01-28T00:25:50.331Z,5
2023-01-28T00:27:06.608Z,4.5
2023-01-28T00:28:22.902Z,4.4
2023-01-28T00:29:39.205Z,3.1
2023-01-28T00:30:55.494Z,2.8
2023-01-28T00:32:11.787Z,4.3
2023-01-28T00:33:28.074Z,4.3
2023-01-28T00:34:44.384Z,3.1
2023-01-28T00:36:00.666Z,4.8
2023-01-28T00:37:15.980Z,3.5
2023-01-28T00:38:32.271Z,3.2
2023-01-28T00:39:48.558Z,6
2023-01-28T00:41:04.851Z,3.6
2023-01-28T00:42:21.158Z,3.6
2023-01-28T00:43:37.443Z,4.2
2023-01-28T00:44:53.742Z,6.9
2023-01-28T00:46:10.025Z,9
2023-01-28T00:47:26.334Z,3.9
2023-01-28T00:48:42.611Z,3.9
2023-01-28T00:49:58.920Z,4.6
2023-01-28T00:51:15.217Z,5.4
2023-01-28T00:52:31.494Z,4.5
2023-01-28T00:53:46.803Z,6.7
2023-01-28T00:55:03.105Z,7.9
2023-01-28T00:56:19.395Z,5.6
2023-01-28T00:57:35.681Z,5.1
2023-01-28T00:58:51.987Z,7.3
2023-01-28T01:00:08.280Z,5
2023-01-28T01:01:24.578Z,3.5
2023-01-28T01:02:40.856Z,4.8
2023-01-28T01:03:57.168Z,3.4
2023-01-28T01:05:13.449Z,3
2023-01-28T01:06:29.753Z,4.3
2023-01-28T01:07:46.034Z,2.3
2023-01-28T01:09:02.330Z,4.6
2023-01-28T01:10:17.636Z,5.4
2023-01-28T01:11:33.933Z,2.1
2023-01-28T01:12:50.236Z,4.2
2023-01-28T01:14:06.527Z,4.9
2023-01-28T01:15:22.822Z,4.4
2023-01-28T01:16:39.104Z,3.5
2023-01-28T01:17:55.401Z,4.9
2023-01-28T01:19:11.699Z,5.5
2023-01-28T01:20:27.992Z,3.8
2023-01-28T01:21:44.283Z,3.4
2023-01-28T01:23:00.566Z,4.5
2023-01-28T01:24:16.860Z,2.7
2023-01-28T01:25:33.157Z,4.1
2023-01-28T01:26:48.478Z,5
2023-01-28T01:28:04.760Z,4.2
2023-01-28T01:29:21.061Z,3.5
2023-01-28T01:30:37.361Z,3.2
2023-01-28T01:31:53.646Z,5.5
2023-01-28T01:33:09.944Z,5.6
2023-01-28T01:34:26.223Z,3.2
2023-01-28T01:35:42.530Z,2.7
2023-01-28T01:36:58.827Z,5.7
2023-01-28T01:38:15.115Z,3.8
2023-01-28T01:39:31.401Z,3.6
2023-01-28T01:42:03.984Z,5.5
2023-01-28T01:43:19.310Z,2.5
2023-01-28T01:44:35.594Z,3
2023-01-28T01:45:51.886Z,3
2023-01-28T01:47:08.191Z,2.5
2023-01-28T01:48:24.486Z,3.4
2023-01-28T01:49:40.767Z,4.2
2023-01-28T01:50:57.065Z,5.2
2023-01-28T01:52:13.357Z,4.5
2023-01-28T01:53:29.658Z,6.3
2023-01-28T01:54:45.940Z,2.4
2023-01-28T01:56:02.242Z,5.6
2023-01-28T01:57:18.534Z,6.4
2023-01-28T01:58:34.820Z,4.1
2023-01-28T01:59:50.127Z,3.3
2023-01-28T02:01:06.420Z,4.3
2023-01-28T02:02:22.715Z,5.4
2023-01-28T02:03:39.007Z,5.2
2023-01-28T02:04:55.305Z,3.4
2023-01-28T02:06:11.594Z,3.9
2023-01-28T02:07:27.887Z,3.7
2023-01-28T02:08:44.188Z,3.1
2023-01-28T02:10:00.481Z,5.8
2023-01-28T02:11:16.775Z,4.5
2023-01-28T02:12:33.067Z,6.6
2023-01-28T02:13:49.356Z,4.3
2023-01-28T02:15:05.663Z,3.5
2023-01-28T02:16:20.960Z,2.6
2023-01-28T02:17:37.249Z,3.9
2023-01-28T02:18:53.548Z,4.1
2023-01-28T02:20:09.851Z,6.5
2023-01-28T02:21:26.136Z,8.2
2023-01-28T02:22:42.438Z,4.8
2023-01-28T02:23:58.722Z,4
2023-01-28T02:25:15.025Z,6.2
2023-01-28T02:26:31.308Z,4.3
2023-01-28T02:27:47.615Z,5.2
2023-01-28T02:29:03.894Z,5.4
2023-01-28T02:30:20.195Z,5.8
2023-01-28T02:31:36.480Z,4.6
2023-01-28T02:32:51.785Z,7.2
2023-01-28T02:34:08.082Z,3.7
2023-01-28T02:35:24.388Z,3.2
2023-01-28T02:36:40.682Z,3.2
2023-01-28T02:37:56.976Z,4.6
2023-01-28T02:39:13.263Z,6.6
2023-01-28T02:40:29.557Z,3.3
2023-01-28T02:41:45.840Z,4.9
2023-01-28T02:43:02.142Z,2.8
2023-01-28T02:44:18.442Z,6.2
2023-01-28T02:45:34.732Z,4.9
2023-01-28T02:46:51.027Z,4.5
2023-01-28T02:48:07.327Z,8.4
2023-01-28T02:49:22.637Z,2.8
2023-01-28T02:50:38.928Z,4.3
2023-01-28T02:51:55.216Z,3.6
2023-01-28T02:53:11.511Z,5.2
2023-01-28T02:54:27.803Z,4.2
2023-01-28T02:55:44.102Z,3.4
2023-01-28T02:56:59.411Z,6.1
2023-01-28T02:58:15.711Z,4
2023-01-28T02:59:31.994Z,3.8
2023-01-28T03:00:48.286Z,4.2
2023-01-28T03:02:04.585Z,5
2023-01-28T03:03:20.869Z,3.6
2023-01-28T03:04:37.166Z,6.7
2023-01-28T03:05:53.465Z,6
2023-01-28T03:07:09.761Z,2.9
2023-01-28T03:08:26.042Z,3.9
2023-01-28T03:09:42.349Z,8.3
2023-01-28T03:10:58.628Z,5.8
2023-01-28T03:12:14.927Z,3.2
2023-01-28T03:13:30.232Z,5.2
2023-01-28T03:14:46.531Z,3.3
2023-01-28T03:16:02.822Z,3.5
2023-01-28T03:17:19.116Z,3.9
2023-01-28T03:18:35.413Z,3.7
2023-01-28T03:19:51.712Z,4.1
2023-01-28T03:21:07.997Z,2.7
2023-01-28T03:22:24.296Z,8.3
2023-01-28T03:23:40.596Z,4.5
2023-01-28T03:24:56.882Z,6.7
2023-01-28T03:26:13.165Z,4.4
2023-01-28T03:27:29.465Z,6.1
2023-01-28T03:28:45.753Z,4.1
2023-01-28T03:30:01.074Z,8.1
2023-01-28T03:31:17.373Z,3.9
2023-01-28T03:32:33.659Z,4.2
2023-01-28T03:33:49.956Z,5.2
2023-01-28T03:35:06.245Z,6.7
2023-01-28T03:36:22.549Z,5.9
2023-01-28T03:37:38.843Z,5.1
2023-01-28T03:38:55.121Z,4.7
2023-01-28T03:41:27.717Z,3.7
2023-01-28T03:42:44.011Z,7.3
2023-01-28T03:44:00.300Z,6.7
2023-01-28T03:45:16.589Z,2.8
2023-01-28T03:46:31.901Z,4.1
2023-01-28T03:47:48.189Z,5.1
2023-01-28T03:49:04.489Z,4.4
2023-01-28T03:50:20.793Z,4.1
2023-01-28T03:51:37.074Z,4.5
2023-01-28T03:52:53.364Z,4.1
2023-01-28T03:54:09.674Z,3.3
2023-01-28T03:55:25.956Z,5.6
2023-01-28T03:56:42.261Z,4.4
2023-01-28T03:57:58.544Z,3
2023-01-28T03:59:14.838Z,3.8
2023-01-28T04:00:31.125Z,4.3
2023-01-28T04:01:47.428Z,7.1
2023-01-28T04:03:02.739Z,2.6
2023-01-28T04:04:19.031Z,4.8
2023-01-28T04:05:35.311Z,4.1
2023-01-28T04:06:51.000Z,3.2
2023-01-28T04:08:07.912Z,4.1
2023-01-28T04:09:24.193Z,3.8
2023-01-28T04:10:40.495Z,3.9
2023-01-28T04:11:56.787Z,4.1
2023-01-28T04:13:13.084Z,7
2023-01-28T04:14:29.372Z,5.4
2023-01-28T04:15:45.663Z,3.2
2023-01-28T04:17:01.955Z,5.7
2023-01-28T04:18:18.262Z,4.2
2023-01-28T04:19:33.558Z,2.5
2023-01-28T04:20:49.853Z,3.4
2023-01-28T04:22:06.152Z,3.3
2023-01-28T04:23:22.448Z,6.5
2023-01-28T04:24:38.730Z,3.1
2023-01-28T04:25:55.034Z,4.7
2023-01-28T04:27:11.329Z,4.4
2023-01-28T04:28:27.619Z,6.8
2023-01-28T04:29:43.914Z,4.2
2023-01-28T04:31:00.201Z,3.8
2023-01-28T04:32:16.503Z,4
2023-01-28T04:33:32.802Z,3.3
2023-01-28T04:34:49.085Z,4.8
2023-01-28T04:36:04.394Z,4
2023-01-28T04:37:20.684Z,2.7
2023-01-28T04:38:36.976Z,2.7
2023-01-28T04:39:53.274Z,5.9
2023-01-28T04:41:09.577Z,6.7
2023-01-28T04:42:25.871Z,2.7
2023-01-28T04:43:42.150Z,2.6
2023-01-28T04:44:58.454Z,4.7
2023-01-28T04:46:14.745Z,6.6
2023-01-28T04:47:31.046Z,4.2
2023-01-28T04:48:47.333Z,5.5
2023-01-28T04:50:03.621Z,5.2
2023-01-28T04:51:19.918Z,4.1
2023-01-28T04:52:35.231Z,4
2023-01-28T04:53:51.520Z,3
2023-01-28T04:55:07.810Z,6.7
2023-01-28T04:56:24.115Z,6.4
2023-01-28T04:57:40.411Z,4.2
2023-01-28T04:58:56.696Z,4.1
2023-01-28T05:00:12.991Z,3.9
2023-01-28T05:01:29.291Z,4.1
2023-01-28T05:02:45.573Z,5.5
2023-01-28T05:04:01.874Z,4
2023-01-28T05:05:18.167Z,4.9
2023-01-28T05:06:34.458Z,5.7
2023-01-28T05:07:50.747Z,4.8
2023-01-28T05:09:06.057Z,4.3
2023-01-28T05:10:22.353Z,5.8
2023-01-28T05:11:38.640Z,5
2023-01-28T05:12:54.937Z,7.5
2023-01-28T05:14:11.242Z,4.1
2023-01-28T05:15:27.524Z,3
2023-01-28T05:18:00.110Z,4.2
2023-01-28T05:19:16.414Z,2.7
2023-01-28T05:20:32.697Z,5.1
2023-01-28T05:21:48.992Z,4.8
2023-01-28T05:23:05.284Z,4.8
2023-01-28T05:24:21.580Z,5.2
2023-01-28T05:25:36.881Z,5.4
2023-01-28T05:26:53.186Z,3.3
2023-01-28T05:28:09.480Z,5.8
2023-01-28T05:29:25.778Z,5.1
2023-01-28T05:30:42.075Z,6.4
2023-01-28T05:31:58.350Z,4.1
2023-01-28T05:33:14.647Z,4.3
2023-01-28T05:34:30.949Z,5
2023-01-28T05:35:47.240Z,4.3
2023-01-28T05:37:03.542Z,3.4
2023-01-28T05:38:19.815Z,3.6
2023-01-28T05:39:36.113Z,4.3
2023-01-28T05:40:52.419Z,3.7
2023-01-28T05:42:07.727Z,6.3
2023-01-28T05:43:24.025Z,4.1
2023-01-28T05:44:40.319Z,2.5
2023-01-28T05:45:56.595Z,5.2
2023-01-28T05:47:12.899Z,8.2
2023-01-28T05:48:29.182Z,3.6
2023-01-28T05:49:45.481Z,5.1
2023-01-28T05:51:01.779Z,3.8
2023-01-28T05:52:18.080Z,4.7
2023-01-28T05:53:34.366Z,5.2
2023-01-28T05:54:50.667Z,2.2
2023-01-28T05:56:06.944Z,3.8
2023-01-28T05:57:23.242Z,2.6
2023-01-28T05:58:38.550Z,2.8
2023-01-28T05:59:54.841Z,3.8
2023-01-28T06:01:11.139Z,4.4
2023-01-28T06:02:27.437Z,3.3
2023-01-28T06:03:43.000Z,4.4
2023-01-28T06:05:00.017Z,4.8
2023-01-28T06:06:16.313Z,5
2023-01-28T06:07:32.605Z,4.3
2023-01-28T06:08:48.899Z,4.9
2023-01-28T06:10:05.190Z,4.7
2023-01-28T06:11:21.481Z,4.2
2023-01-28T06:12:37.784Z,4.4
2023-01-28T06:13:54.082Z,5.5
2023-01-28T06:15:09.381Z,4.5
2023-01-28T06:16:25.691Z,17
2023-01-28T06:17:41.970Z,6.2
2023-01-28T06:18:58.260Z,4.2
2023-01-28T06:20:14.554Z,4
2023-01-28T06:21:30.853Z,5.7
2023-01-28T06:22:47.143Z,3.9
2023-01-28T06:24:03.449Z,3.7
2023-01-28T06:25:19.733Z,4.9
2023-01-28T06:26:35.975Z,3.7
2023-01-28T06:27:52.218Z,3.4
2023-01-28T06:29:08.465Z,4.5
2023-01-28T06:30:24.770Z,4.9
2023-01-28T06:31:40.036Z,3.3
2023-01-28T06:32:56.259Z,7.1
2023-01-28T06:34:12.514Z,7.6
2023-01-28T06:36:44.987Z,3.6
2023-01-28T06:38:01.225Z,3.1
2023-01-28T06:39:17.458Z,3.8
2023-01-28T06:40:33.695Z,4.1
2023-01-28T06:41:49.943Z,3.8
2023-01-28T06:43:06.179Z,4
2023-01-28T06:44:22.426Z,6.8
2023-01-28T06:45:38.672Z,4.3
2023-01-28T06:46:54.912Z,3.8
2023-01-28T06:48:10.153Z,3.3
2023-01-28T06:49:26.399Z,4.8
2023-01-28T06:50:42.633Z,6.5
2023-01-28T06:51:58.878Z,3.2
2023-01-28T06:53:15.125Z,3.9
2023-01-28T06:54:31.348Z,4.5
2023-01-28T06:55:47.604Z,5.5
2023-01-28T06:57:03.824Z,3.7
2023-01-28T06:58:20.067Z,4.6
2023-01-28T06:59:36.320Z,5.1
2023-01-28T07:00:52.557Z,4.2
2023-01-28T07:02:08.792Z,3.7
2023-01-28T07:03:25.039Z,4.8
2023-01-28T07:04:40.280Z,6.1
2023-01-28T07:05:56.537Z,4.7
2023-01-28T07:07:12.756Z,3.6
2023-01-28T07:08:29.014Z,3.2
2023-01-28T07:09:45.254Z,7.5
2023-01-28T07:11:01.494Z,3.3
2023-01-28T07:12:16.736Z,4.6
2023-01-28T07:13:32.981Z,5.2
2023-01-28T07:14:49.229Z,3.5
2023-01-28T07:16:05.464Z,3.4
2023-01-28T07:17:21.701Z,5.7
2023-01-28T07:18:37.933Z,3.5
2023-01-28T07:19:54.174Z,3.4
2023-01-28T07:21:10.430Z,3.4
2023-01-28T07:22:26.661Z,2.5
2023-01-28T07:23:42.894Z,4.3
2023-01-28T07:24:59.153Z,3.5
2023-01-28T07:26:15.383Z,2.6
2023-01-28T07:27:31.625Z,6.7
2023-01-28T07:28:46.865Z,3.6
2023-01-28T07:30:03.120Z,4.2
2023-01-28T07:31:19.347Z,3.2
2023-01-28T07:32:35.583Z,3.8
2023-01-28T07:33:51.838Z,5
2023-01-28T07:35:08.069Z,4
2023-01-28T07:36:24.312Z,4.6
2023-01-28T07:37:40.562Z,2.8
2023-01-28T07:38:56.799Z,4.9
2023-01-28T07:40:13.024Z,4.6
2023-01-28T07:41:29.266Z,3.4
2023-01-28T07:42:45.512Z,7.5
2023-01-28T07:44:01.741Z,5.2
2023-01-28T07:45:17.012Z,4.2
2023-01-28T07:46:33.246Z,2.8
2023-01-28T07:47:49.496Z,4.2
2023-01-28T07:49:05.733Z,3.4
2023-01-28T07:50:21.975Z,4.4
2023-01-28T07:51:38.214Z,2.2
2023-01-28T07:52:54.442Z,4.4
2023-01-28T07:54:10.679Z,5.1
2023-01-28T07:55:26.915Z,3.1
2023-01-28T07:56:43.169Z,2.5
2023-01-28T07:57:59.399Z,5.5
2023-01-28T07:59:15.642Z,3.5
2023-01-28T08:00:31.887Z,4
2023-01-28T08:01:47.132Z,3.4
2023-01-28T08:03:03.379Z,4.1
2023-01-28T08:04:19.623Z,3.9
2023-01-28T08:05:35.847Z,3.1
2023-01-28T08:06:52.103Z,20
2023-01-28T08:08:08.344Z,34.1
2023-01-28T08:09:24.581Z,22.1
2023-01-28T08:11:57.061Z,9.4
2023-01-28T08:13:13.291Z,5.1
2023-01-28T08:14:29.544Z,6.1
2023-01-28T08:15:45.769Z,4.8
2023-01-28T08:17:02.018Z,5.7
2023-01-28T08:18:17.264Z,3.2
2023-01-28T08:19:33.516Z,3.2
2023-01-28T08:20:49.746Z,3.7
2023-01-28T08:22:05.993Z,3.3
2023-01-28T08:23:22.228Z,5.6
2023-01-28T08:24:38.470Z,3.9
2023-01-28T08:25:54.714Z,12.9
2023-01-28T08:27:10.000Z,13.1
2023-01-28T08:28:27.181Z,10.9
2023-01-28T08:29:43.418Z,3.6
2023-01-28T08:30:59.673Z,2.7
2023-01-28T08:32:15.912Z,2.8
2023-01-28T08:33:32.138Z,3.1
2023-01-28T08:34:47.405Z,2.6
2023-01-28T08:36:03.632Z,3.3
2023-01-28T08:37:19.879Z,5
2023-01-28T08:38:36.116Z,4.1
2023-01-28T08:39:52.370Z,4.1
2023-01-28T08:41:08.590Z,4.1
2023-01-28T08:42:24.833Z,3
2023-01-28T08:43:41.078Z,7.3
2023-01-28T08:44:57.315Z,6.2
2023-01-28T08:46:13.556Z,4.9
2023-01-28T08:47:29.795Z,4
2023-01-28T08:48:46.039Z,4.7
2023-01-28T08:50:02.283Z,4
2023-01-28T08:51:17.532Z,6
2023-01-28T08:52:33.762Z,8.3
2023-01-28T08:53:50.005Z,4.1
2023-01-28T08:55:06.261Z,2.5
2023-01-28T08:56:22.487Z,5.7
2023-01-28T08:57:38.729Z,5.5
2023-01-28T08:58:54.961Z,3.9
2023-01-28T09:00:11.215Z,6.3
2023-01-28T09:01:27.438Z,7.1
2023-01-28T09:02:43.685Z,7.8
2023-01-28T09:03:59.933Z,4.6
2023-01-28T09:05:16.158Z,7.4
2023-01-28T09:06:32.401Z,4.7
2023-01-28T09:07:47.666Z,8.4
2023-01-28T09:09:03.901Z,11.1
2023-01-28T09:10:20.141Z,9.3
2023-01-28T09:11:36.380Z,9.1
2023-01-28T09:12:52.615Z,4.7
2023-01-28T09:14:08.858Z,6.6
2023-01-28T09:15:25.090Z,4.4
2023-01-28T09:16:41.329Z,2.9
2023-01-28T09:17:57.575Z,3.5
2023-01-28T09:19:13.827Z,2.6
2023-01-28T09:20:30.058Z,3.1
2023-01-28T09:21:46.286Z,5.9
2023-01-28T09:23:02.538Z,4.3
2023-01-28T09:24:17.798Z,5.9
2023-01-28T09:25:34.026Z,3.9
2023-01-28T09:26:50.268Z,1.9
2023-01-28T09:28:06.513Z,2.6
2023-01-28T09:29:22.741Z,3.9
2023-01-28T09:30:38.991Z,2.3
2023-01-28T09:31:55.222Z,2.7
2023-01-28T09:33:11.459Z,3.4
2023-01-28T09:34:27.715Z,3.2
2023-01-28T09:35:43.956Z,1.7
2023-01-28T09:37:00.191Z,5.4
2023-01-28T09:38:16.420Z,4.3
2023-01-28T09:40:48.898Z,2.6
2023-01-28T09:42:04.165Z,2.2
2023-01-28T09:43:20.398Z,3.3
2023-01-28T09:44:36.638Z,3.9
2023-01-28T09:45:52.890Z,3.3
2023-01-28T09:47:09.128Z,2.4
2023-01-28T09:48:25.365Z,3.5
2023-01-28T09:49:41.604Z,4.4
2023-01-28T09:50:57.844Z,3.6
2023-01-28T09:52:14.074Z,2.6
2023-01-28T09:53:30.326Z,3.8
2023-01-28T09:54:46.555Z,3.6
2023-01-28T09:56:02.797Z,4.5
2023-01-28T09:57:19.026Z,3.7
2023-01-28T09:58:34.298Z,7.8
2023-01-28T09:59:50.522Z,8.9
2023-01-28T10:01:06.776Z,2.9
2023-01-28T10:02:23.011Z,2.9
2023-01-28T10:03:39.247Z,3.6
2023-01-28T10:04:55.483Z,3.2
2023-01-28T10:06:11.725Z,0.7
2023-01-28T10:07:27.956Z,4.1
2023-01-28T10:08:44.200Z,2
2023-01-28T10:10:00.434Z,1.9
2023-01-28T10:11:16.682Z,2.6
2023-01-28T10:12:32.919Z,2.8
2023-01-28T10:13:49.164Z,4.2
2023-01-28T10:15:04.429Z,2.6
2023-01-28T10:16:20.665Z,2.8
2023-01-28T10:17:36.903Z,2.6
2023-01-28T10:18:53.132Z,3
2023-01-28T10:20:09.380Z,2.5
2023-01-28T10:21:25.618Z,4.3
2023-01-28T10:22:41.862Z,2.6
2023-01-28T10:23:58.088Z,5.4
2023-01-28T10:25:14.326Z,2.9
2023-01-28T10:26:30.584Z,2.4
2023-01-28T10:27:46.817Z,3.3
2023-01-28T10:29:03.057Z,1.9
2023-01-28T10:30:19.289Z,5.9
2023-01-28T10:31:34.547Z,1.3
2023-01-28T10:32:50.797Z,4.2
2023-01-28T10:34:07.019Z,1.7
2023-01-28T10:35:23.261Z,3.4
2023-01-28T10:36:39.504Z,2.2
2023-01-28T10:37:55.747Z,3.7
2023-01-28T10:39:11.995Z,2.9
2023-01-28T10:40:28.234Z,2.7
2023-01-28T10:41:44.460Z,2.6
2023-01-28T10:43:00.710Z,3.1
2023-01-28T10:44:16.945Z,3.7
2023-01-28T10:45:33.185Z,3.9
2023-01-28T10:46:49.428Z,3
2023-01-28T10:48:04.671Z,4
2023-01-28T10:49:20.918Z,3.8
2023-01-28T10:50:37.157Z,2.6
2023-01-28T10:51:53.403Z,3.1
2023-01-28T10:53:09.647Z,2.7
2023-01-28T10:55:42.111Z,1.8
2023-01-28T10:56:58.000Z,3.2
2023-01-28T10:58:14.593Z,1.9
2023-01-28T10:59:30.827Z,2.1
2023-01-28T11:00:47.083Z,4.2
2023-01-28T11:02:03.317Z,3.1
2023-01-28T11:03:19.547Z,1.7
2023-01-28T11:04:34.812Z,3
2023-01-28T11:05:51.057Z,2.1
2023-01-28T11:07:07.280Z,2.2
2023-01-28T11:08:23.522Z,3.5
2023-01-28T11:09:39.765Z,3.4
2023-01-28T11:10:56.014Z,3.3
2023-01-28T11:12:12.237Z,5.5
2023-01-28T11:13:28.479Z,4.7
2023-01-28T11:14:44.728Z,3.3
2023-01-28T11:16:00.956Z,2.2
2023-01-28T11:17:17.195Z,3.4
2023-01-28T11:18:33.443Z,4.7
2023-01-28T11:19:49.679Z,2.5
2023-01-28T11:21:04.946Z,3.8
2023-01-28T11:22:21.176Z,3.1
2023-01-28T11:23:37.415Z,3
2023-01-28T11:24:53.664Z,4.1
2023-01-28T11:26:09.889Z,2.8
2023-01-28T11:27:25.152Z,4
2023-01-28T11:28:41.395Z,3
2023-01-28T11:29:57.644Z,2.2
2023-01-28T11:31:13.872Z,2.7
2023-01-28T11:32:30.116Z,2.9
2023-01-28T11:33:46.358Z,4
2023-01-28T11:35:02.596Z,3.4
2023-01-28T11:36:18.825Z,3
2023-01-28T11:37:35.068Z,3.7
2023-01-28T11:38:51.310Z,2.5
2023-01-28T11:40:07.550Z,2.5
2023-01-28T11:41:23.783Z,3.6
2023-01-28T11:42:40.032Z,2.6
2023-01-28T11:43:55.289Z,2.3
2023-01-28T11:45:11.522Z,2.3
2023-01-28T11:46:27.768Z,3.2
2023-01-28T11:47:44.004Z,2.6
2023-01-28T11:49:00.245Z,4.1
2023-01-28T11:50:16.483Z,3.5
2023-01-28T11:51:32.728Z,6.2
2023-01-28T11:52:48.958Z,3.9
2023-01-28T11:54:05.192Z,7.9
2023-01-28T11:55:21.439Z,4.4
2023-01-28T11:56:37.678Z,3.3
2023-01-28T11:57:53.909Z,6.2
2023-01-28T11:59:10.155Z,2.5
2023-01-28T12:00:25.421Z,3.3
2023-01-28T12:01:41.661Z,3.8
2023-01-28T12:02:57.883Z,5.2
2023-01-28T12:04:14.136Z,3.2
2023-01-28T12:05:30.368Z,3.7
2023-01-28T12:06:46.614Z,3.1
2023-01-28T12:08:02.858Z,2.7
2023-01-28T12:09:19.079Z,4.6
2023-01-28T12:10:35.337Z,2.7
2023-01-28T12:11:51.576Z,5.4
2023-01-28T12:13:07.808Z,2.8
2023-01-28T12:14:24.045Z,4.1
2023-01-28T12:15:40.297Z,4.9
2023-01-28T12:16:55.539Z,2.2
2023-01-28T12:18:11.789Z,4
2023-01-28T12:19:28.014Z,4.4
2023-01-28T12:20:44.261Z,6.1
2023-01-28T12:22:00.489Z,4.4
2023-01-28T12:23:16.742Z,3
2023-01-28T12:24:32.982Z,3.6
2023-01-28T12:25:49.209Z,5.8
2023-01-28T12:27:05.459Z,3.5
2023-01-28T12:28:21.701Z,4
2023-01-28T12:29:37.931Z,3.3
2023-01-28T12:30:54.171Z,4.5
2023-01-28T12:32:10.418Z,3.7
2023-01-28T12:33:25.666Z,3.5
2023-01-28T12:34:41.903Z,3.5
2023-01-28T12:35:58.155Z,3.5
2023-01-28T12:37:14.384Z,4
2023-01-28T12:38:30.626Z,4.4
2023-01-28T12:39:46.871Z,7.6
2023-01-28T12:41:03.113Z,4.7
2023-01-28T12:42:19.356Z,3.5
2023-01-28T12:43:35.582Z,4.3
2023-01-28T12:44:51.827Z,5.5
2023-01-28T12:46:08.067Z,3
2023-01-28T12:47:24.296Z,5.2
2023-01-28T12:48:40.555Z,3.9
2023-01-28T12:49:55.791Z,3
2023-01-28T12:51:12.033Z,4.3
2023-01-28T12:52:28.272Z,3.2
2023-01-28T12:53:44.512Z,4.1
2023-01-28T12:55:00.757Z,4.6
2023-01-28T12:56:16.988Z,4
2023-01-28T12:57:33.234Z,3.3
2023-01-28T12:58:49.470Z,4.3
2023-01-28T13:00:05.718Z,4.5
2023-01-28T13:01:21.956Z,4
2023-01-28T13:02:38.183Z,5.4
2023-01-28T13:03:54.432Z,5.4
2023-01-28T13:05:10.671Z,3.8
2023-01-28T13:06:25.920Z,4.4
2023-01-28T13:07:42.176Z,5
2023-01-28T13:08:58.404Z,3.6
2023-01-28T13:10:14.640Z,3.4
2023-01-28T13:11:30.885Z,4.1
2023-01-28T13:12:47.121Z,5.7
2023-01-28T13:14:03.363Z,3.1
2023-01-28T13:15:19.611Z,4.5
2023-01-28T13:16:35.854Z,4.1
2023-01-28T13:17:52.081Z,5
2023-01-28T13:19:08.319Z,5.4
2023-01-28T13:20:24.552Z,2.7
2023-01-28T13:21:40.793Z,3.8
2023-01-28T13:22:56.057Z,3.8
2023-01-28T13:24:12.304Z,3.4
2023-01-28T13:25:28.544Z,4.3
2023-01-28T13:26:44.773Z,5.2
2023-01-28T13:28:01.011Z,3.4
2023-01-28T13:29:17.260Z,4.7
2023-01-28T13:30:33.484Z,3.7
2023-01-28T13:31:49.723Z,5.1
2023-01-28T13:33:05.965Z,3.5
2023-01-28T13:34:22.206Z,4.3
2023-01-28T13:35:38.451Z,5.9
2023-01-28T13:36:54.695Z,3.4
2023-01-28T13:38:10.937Z,4
2023-01-28T13:39:26.174Z,3.2
2023-01-28T13:40:42.417Z,4.3
2023-01-28T13:41:58.674Z,4.1
2023-01-28T13:43:14.896Z,4.4
2023-01-28T13:44:31.137Z,3
2023-01-28T13:45:47.387Z,5.1
2023-01-28T13:47:03.628Z,3.8
2023-01-28T13:48:19.872Z,3.7
2023-01-28T13:49:36.108Z,4.9
2023-01-28T13:50:52.332Z,6
2023-01-28T13:52:08.582Z,4.2
2023-01-28T13:53:24.826Z,3.9
2023-01-28T13:54:41.050Z,9.2
2023-01-28T13:55:56.311Z,3.8
2023-01-28T13:57:12.547Z,3.5
2023-01-28T13:58:28.787Z,3.5
2023-01-28T13:59:45.031Z,2.9
2023-01-28T14:01:01.274Z,3.8
2023-01-28T14:02:17.505Z,5.4
2023-01-28T14:03:33.742Z,5.8
2023-01-28T14:04:49.998Z,5.4
2023-01-28T14:06:06.223Z,5.9
2023-01-28T14:07:22.461Z,4.6
2023-01-28T14:08:38.711Z,5
2023-01-28T14:09:54.939Z,4.9
2023-01-28T14:11:11.000Z,5.4
2023-01-28T14:13:42.686Z,4.8
2023-01-28T14:14:58.925Z,5.2
2023-01-28T14:16:15.173Z,6.8
2023-01-28T14:17:31.399Z,6.2
2023-01-28T14:18:47.638Z,5.9
2023-01-28T14:20:03.871Z,5.6
2023-01-28T14:21:20.114Z,5.9
2023-01-28T14:22:36.355Z,5.5
2023-01-28T14:23:52.590Z,5.9
2023-01-28T14:25:08.838Z,9.2
2023-01-28T14:26:25.077Z,4.4
2023-01-28T14:27:41.318Z,4.9
2023-01-28T14:28:56.583Z,6.8
2023-01-28T14:30:12.813Z,6.3
2023-01-28T14:31:29.052Z,4.8
2023-01-28T14:32:45.297Z,6.2
2023-01-28T14:34:01.536Z,5.9
2023-01-28T14:35:17.762Z,6
2023-01-28T14:36:34.002Z,6.9
2023-01-28T14:37:50.251Z,7.1
2023-01-28T14:39:06.494Z,5.6
2023-01-28T14:40:22.734Z,5.1
2023-01-28T14:41:38.958Z,5.6
2023-01-28T14:42:55.208Z,6.7
2023-01-28T14:44:11.452Z,24.2
2023-01-28T14:45:26.702Z,14.9
2023-01-28T14:46:42.933Z,11.6
2023-01-28T14:47:59.190Z,18.5
2023-01-28T14:49:15.412Z,21.7
2023-01-28T14:50:31.653Z,18.3
2023-01-28T14:51:47.894Z,14.7
2023-01-28T14:53:04.145Z,13.1
2023-01-28T14:54:20.381Z,6.6
2023-01-28T14:55:36.623Z,6.2
2023-01-28T14:56:52.854Z,5.5
2023-01-28T14:58:09.093Z,5.9
2023-01-28T14:59:25.346Z,5.6
2023-01-28T15:00:41.576Z,12.6
2023-01-28T15:01:56.826Z,11.8
2023-01-28T15:03:13.076Z,10.2
2023-01-28T15:04:29.304Z,9.6
2023-01-28T15:05:45.558Z,9
2023-01-28T15:07:01.796Z,7.8
2023-01-28T15:08:18.031Z,8
2023-01-28T15:09:34.259Z,7.8
2023-01-28T15:10:50.506Z,5.8
2023-01-28T15:12:06.753Z,7
2023-01-28T15:13:22.986Z,6.8
2023-01-28T15:14:39.225Z,6.6
2023-01-28T15:15:55.456Z,7.7
2023-01-28T15:17:11.702Z,6.5
2023-01-28T15:18:26.951Z,5.6
2023-01-28T15:19:43.190Z,6.8
2023-01-28T15:20:59.440Z,5.4
2023-01-28T15:22:15.677Z,6.8
2023-01-28T15:23:31.925Z,6.2
2023-01-28T15:24:48.158Z,5.6
2023-01-28T15:26:04.388Z,6
2023-01-28T15:27:20.628Z,6.7
2023-01-28T15:28:36.866Z,5.7
2023-01-28T15:29:53.113Z,5.8
2023-01-28T15:31:09.347Z,6.5
2023-01-28T15:32:25.599Z,9
2023-01-28T15:33:41.838Z,5.6
2023-01-28T15:34:57.099Z,6.5
2023-01-28T15:36:13.335Z,6.8
2023-01-28T15:37:29.568Z,8.6
2023-01-28T15:38:45.799Z,6
2023-01-28T15:40:02.050Z,8
2023-01-28T15:41:18.279Z,6.3
2023-01-28T15:42:33.548Z,7.9
2023-01-28T15:43:49.783Z,4.7
2023-01-28T15:45:06.021Z,9.7
2023-01-28T15:46:22.273Z,11.1
2023-01-28T15:47:38.510Z,12
2023-01-28T15:48:54.753Z,6.3
2023-01-28T15:50:10.979Z,7.4
2023-01-28T15:51:27.224Z,7.7
2023-01-28T15:52:43.456Z,6.6
2023-01-28T15:53:59.706Z,6.7
2023-01-28T15:55:15.946Z,7.6
2023-01-28T15:56:32.177Z,5.1
2023-01-28T15:57:48.423Z,5.7
2023-01-28T15:59:03.669Z,4.9
2023-01-28T16:00:19.924Z,5.9
2023-01-28T16:01:36.156Z,5.9
2023-01-28T16:02:52.395Z,5.3
2023-01-28T16:04:08.640Z,5.5
2023-01-28T16:05:24.885Z,5.9
2023-01-28T16:06:41.113Z,7.3
2023-01-28T16:07:57.351Z,4.3
2023-01-28T16:09:13.586Z,6.3
2023-01-28T16:10:29.837Z,5.7
2023-01-28T16:11:46.066Z,6.5
2023-01-28T16:13:02.311Z,5.5
2023-01-28T16:14:18.543Z,5.9
2023-01-28T16:15:33.789Z,6.9
2023-01-28T16:16:50.030Z,7.4
2023-01-28T16:18:06.275Z,6.7
2023-01-28T16:19:22.508Z,5.7
2023-01-28T16:20:38.746Z,5.4
2023-01-28T16:21:54.988Z,4.9
2023-01-28T16:23:11.292Z,6.3
2023-01-28T16:24:27.593Z,7.6
2023-01-28T16:25:43.871Z,6.7
2023-01-28T16:27:00.178Z,6.1
2023-01-28T16:28:16.469Z,5.3
2023-01-28T16:29:32.763Z,5.2
2023-01-28T16:30:49.047Z,6.9
2023-01-28T16:32:04.363Z,6.3
2023-01-28T16:33:20.647Z,5.9
2023-01-28T16:34:36.947Z,7.2
2023-01-28T16:35:53.238Z,10
2023-01-28T16:37:09.524Z,13
2023-01-28T16:38:25.822Z,9.6
2023-01-28T16:39:42.126Z,9.8
2023-01-28T16:40:58.423Z,10.1
2023-01-28T16:42:14.712Z,8.3
2023-01-28T16:43:30.997Z,8.1
2023-01-28T16:44:47.304Z,12.1
2023-01-28T16:46:03.588Z,22.1
2023-01-28T16:47:19.882Z,32.7
2023-01-28T16:48:35.189Z,19.5
2023-01-28T16:49:51.493Z,15.8
2023-01-28T16:51:07.773Z,18.2
2023-01-28T16:53:40.360Z,9.9
2023-01-28T16:54:56.663Z,10.3
2023-01-28T16:56:12.947Z,12.7
2023-01-28T16:57:29.242Z,6.8
2023-01-28T16:58:45.539Z,7.3
2023-01-28T17:00:01.841Z,8.4
2023-01-28T17:01:18.134Z,4.8
2023-01-28T17:02:34.422Z,7
2023-01-28T17:03:50.705Z,8.1
2023-01-28T17:05:06.012Z,5.5
2023-01-28T17:06:22.321Z,5.1
2023-01-28T17:07:38.610Z,4
2023-01-28T17:08:54.912Z,6.1
2023-01-28T17:10:11.201Z,10.1
2023-01-28T17:11:27.485Z,7.3
2023-01-28T17:12:43.772Z,9.5
2023-01-28T17:14:00.085Z,6.4
2023-01-28T17:15:16.370Z,4.2
2023-01-28T17:16:32.668Z,6.8
2023-01-28T17:17:48.963Z,5.3
2023-01-28T17:19:05.250Z,5.7
2023-01-28T17:20:21.534Z,6.8
2023-01-28T17:21:36.857Z,4.8
2023-01-28T17:22:53.137Z,7.3
2023-01-28T17:24:09.446Z,17.2
2023-01-28T17:25:25.731Z,20.6
2023-01-28T17:26:42.017Z,19.7
2023-01-28T17:27:58.325Z,19.8
2023-01-28T17:29:14.622Z,58.1
2023-01-28T17:30:30.908Z,20.7
2023-01-28T17:31:47.201Z,12.9
2023-01-28T17:33:03.497Z,12.7
2023-01-28T17:34:19.793Z,6.8
2023-01-28T17:35:36.092Z,6
2023-01-28T17:36:52.380Z,3.2
2023-01-28T17:38:07.688Z,5.8
2023-01-28T17:39:23.983Z,4.3
2023-01-28T17:40:40.265Z,5.3
2023-01-28T17:41:56.573Z,5.9
2023-01-28T17:43:12.852Z,3.4
2023-01-28T17:44:29.148Z,5.5